sensor_id;sensor_type;location;lat;lon;timestamp;pressure;altitude;pressure_sealevel;temperature;humidity
77454;BME280;66538;53.150;18.160;2023-05-21T00:02:17;102138.30;;;14.48;76.58
77454;BME280;66538;53.150;18.160;2023-05-21T00:04:45;102136.11;;;14.47;76.55
77454;BME280;66538;53.150;18.160;2023-05-21T00:07:12;102135.38;;;14.44;76.45
77454;BME280;66538;53.150;18.160;2023-05-21T00:09:40;102143.18;;;14.43;76.60
77454;BME280;66538;53.150;18.160;2023-05-21T00:12:08;102136.42;;;14.40;76.67
77454;BME280;66538;53.150;18.160;2023-05-21T00:14:35;102134.89;;;14.39;76.60
77454;BME280;66538;53.150;18.160;2023-05-21T00:17:01;102138.63;;;14.36;76.57
77454;BME280;66538;53.150;18.160;2023-05-21T00:19:28;102136.74;;;14.32;76.73
77454;BME280;66538;53.150;18.160;2023-05-21T00:21:55;102135.23;;;14.29;77.01
77454;BME280;66538;53.150;18.160;2023-05-21T00:24:23;102139.20;;;14.27;76.80
77454;BME280;66538;53.150;18.160;2023-05-21T00:26:49;102137.09;;;14.24;76.96
77454;BME280;66538;53.150;18.160;2023-05-21T00:29:16;102134.88;;;14.22;77.29
77454;BME280;66538;53.150;18.160;2023-05-21T00:31:42;102138.27;;;14.20;77.18
77454;BME280;66538;53.150;18.160;2023-05-21T00:34:09;102135.41;;;14.16;77.12
77454;BME280;66538;53.150;18.160;2023-05-21T00:36:36;102138.66;;;14.14;77.20
77454;BME280;66538;53.150;18.160;2023-05-21T00:39:04;102139.30;;;14.12;77.26
77454;BME280;66538;53.150;18.160;2023-05-21T00:41:31;102140.46;;;14.09;76.98
77454;BME280;66538;53.150;18.160;2023-05-21T00:43:57;102133.20;;;14.04;77.04
77454;BME280;66538;53.150;18.160;2023-05-21T00:46:26;102133.67;;;14.03;77.30
77454;BME280;66538;53.150;18.160;2023-05-21T00:48:53;102135.91;;;14.02;77.14
77454;BME280;66538;53.150;18.160;2023-05-21T00:51:23;102132.59;;;13.98;77.39
77454;BME280;66538;53.150;18.160;2023-05-21T00:53:51;102132.57;;;13.96;77.48
77454;BME280;66538;53.150;18.160;2023-05-21T00:56:19;102130.61;;;13.92;77.37
77454;BME280;66538;53.150;18.160;2023-05-21T00:58:50;102136.27;;;13.90;77.46
77454;BME280;66538;53.150;18.160;2023-05-21T01:01:17;102130.45;;;13.89;77.61
77454;BME280;66538;53.150;18.160;2023-05-21T01:03:44;102137.27;;;13.86;77.52
77454;BME280;66538;53.150;18.160;2023-05-21T01:06:13;102136.27;;;13.85;77.92
77454;BME280;66538;53.150;18.160;2023-05-21T01:08:41;102136.04;;;13.85;77.85
77454;BME280;66538;53.150;18.160;2023-05-21T01:11:08;102136.27;;;13.85;78.05
77454;BME280;66538;53.150;18.160;2023-05-21T01:13:38;102132.32;;;13.83;77.55
77454;BME280;66538;53.150;18.160;2023-05-21T01:16:07;102135.09;;;13.82;77.79
77454;BME280;66538;53.150;18.160;2023-05-21T01:18:34;102134.58;;;13.81;77.81
77454;BME280;66538;53.150;18.160;2023-05-21T01:21:03;102132.98;;;13.78;77.74
77454;BME280;66538;53.150;18.160;2023-05-21T01:23:30;102132.27;;;13.74;77.62
77454;BME280;66538;53.150;18.160;2023-05-21T01:25:58;102128.73;;;13.71;77.66
77454;BME280;66538;53.150;18.160;2023-05-21T01:28:24;102123.41;;;13.68;77.92
77454;BME280;66538;53.150;18.160;2023-05-21T01:30:51;102121.40;;;13.65;77.83
77454;BME280;66538;53.150;18.160;2023-05-21T01:33:25;102123.23;;;13.63;78.05
77454;BME280;66538;53.150;18.160;2023-05-21T01:36:04;102130.02;;;13.59;78.09
77454;BME280;66538;53.150;18.160;2023-05-21T01:38:46;102125.23;;;13.57;78.36
77454;BME280;66538;53.150;18.160;2023-05-21T01:41:17;102124.37;;;13.53;78.26
77454;BME280;66538;53.150;18.160;2023-05-21T01:43:45;102123.02;;;13.51;78.37
77454;BME280;66538;53.150;18.160;2023-05-21T01:46:16;102120.17;;;13.50;78.57
77454;BME280;66538;53.150;18.160;2023-05-21T01:48:43;102123.36;;;13.47;78.51
77454;BME280;66538;53.150;18.160;2023-05-21T01:51:10;102119.52;;;13.45;78.45
77454;BME280;66538;53.150;18.160;2023-05-21T01:53:37;102119.98;;;13.43;78.54
77454;BME280;66538;53.150;18.160;2023-05-21T01:56:07;102119.84;;;13.41;78.23
77454;BME280;66538;53.150;18.160;2023-05-21T01:58:33;102122.53;;;13.38;78.48
77454;BME280;66538;53.150;18.160;2023-05-21T02:01:00;102119.02;;;13.35;78.74
77454;BME280;66538;53.150;18.160;2023-05-21T02:03:28;102120.48;;;13.32;78.49
77454;BME280;66538;53.150;18.160;2023-05-21T02:05:56;102115.80;;;13.28;78.87
77454;BME280;66538;53.150;18.160;2023-05-21T02:08:23;102112.30;;;13.27;78.91
77454;BME280;66538;53.150;18.160;2023-05-21T02:10:50;102114.52;;;13.25;78.87
77454;BME280;66538;53.150;18.160;2023-05-21T02:13:17;102114.48;;;13.23;78.66
77454;BME280;66538;53.150;18.160;2023-05-21T02:15:47;102112.65;;;13.21;79.30
77454;BME280;66538;53.150;18.160;2023-05-21T02:18:14;102111.98;;;13.20;79.14
77454;BME280;66538;53.150;18.160;2023-05-21T02:20:42;102113.35;;;13.17;79.44
77454;BME280;66538;53.150;18.160;2023-05-21T02:23:09;102108.73;;;13.14;79.22
77454;BME280;66538;53.150;18.160;2023-05-21T02:25:35;102110.83;;;13.11;79.05
77454;BME280;66538;53.150;18.160;2023-05-21T02:28:02;102108.66;;;13.09;79.52
77454;BME280;66538;53.150;18.160;2023-05-21T02:30:29;102106.40;;;13.07;79.52
77454;BME280;66538;53.150;18.160;2023-05-21T02:32:55;102110.14;;;13.06;79.77
77454;BME280;66538;53.150;18.160;2023-05-21T02:35:24;102112.27;;;13.05;80.03
77454;BME280;66538;53.150;18.160;2023-05-21T02:37:50;102115.56;;;13.04;79.74
77454;BME280;66538;53.150;18.160;2023-05-21T02:40:17;102119.08;;;13.01;79.63
77454;BME280;66538;53.150;18.160;2023-05-21T02:42:44;102119.70;;;13.00;79.80
77454;BME280;66538;53.150;18.160;2023-05-21T02:45:12;102116.16;;;12.97;79.65
77454;BME280;66538;53.150;18.160;2023-05-21T02:47:40;102116.40;;;12.96;79.84
77454;BME280;66538;53.150;18.160;2023-05-21T02:50:08;102114.60;;;12.96;79.64
77454;BME280;66538;53.150;18.160;2023-05-21T02:52:39;102118.15;;;12.96;79.61
77454;BME280;66538;53.150;18.160;2023-05-21T02:55:07;102113.48;;;12.94;79.86
77454;BME280;66538;53.150;18.160;2023-05-21T02:57:34;102115.17;;;12.94;79.77
77454;BME280;66538;53.150;18.160;2023-05-21T03:00:01;102114.96;;;12.95;79.71
77454;BME280;66538;53.150;18.160;2023-05-21T03:02:29;102116.48;;;12.95;79.86
77454;BME280;66538;53.150;18.160;2023-05-21T03:04:55;102115.00;;;12.94;79.75
77454;BME280;66538;53.150;18.160;2023-05-21T03:07:22;102118.48;;;12.96;80.02
77454;BME280;66538;53.150;18.160;2023-05-21T03:09:49;102116.98;;;12.95;79.77
77454;BME280;66538;53.150;18.160;2023-05-21T03:12:16;102118.23;;;12.97;79.90
77454;BME280;66538;53.150;18.160;2023-05-21T03:14:43;102114.98;;;12.98;79.84
77454;BME280;66538;53.150;18.160;2023-05-21T03:17:11;102115.63;;;13.01;79.86
77454;BME280;66538;53.150;18.160;2023-05-21T03:19:40;102110.91;;;13.03;80.01
77454;BME280;66538;53.150;18.160;2023-05-21T03:22:07;102109.15;;;13.05;79.97
77454;BME280;66538;53.150;18.160;2023-05-21T03:24:38;102105.48;;;13.07;79.64
77454;BME280;66538;53.150;18.160;2023-05-21T03:27:06;102108.63;;;13.10;80.16
77454;BME280;66538;53.150;18.160;2023-05-21T03:29:34;102106.98;;;13.13;79.77
77454;BME280;66538;53.150;18.160;2023-05-21T03:32:02;102104.06;;;13.15;80.19
77454;BME280;66538;53.150;18.160;2023-05-21T03:34:30;102101.08;;;13.16;79.76
77454;BME280;66538;53.150;18.160;2023-05-21T03:36:59;102098.56;;;13.19;79.56
77454;BME280;66538;53.150;18.160;2023-05-21T03:39:26;102099.03;;;13.23;79.79
77454;BME280;66538;53.150;18.160;2023-05-21T03:41:54;102099.96;;;13.26;79.61
77454;BME280;66538;53.150;18.160;2023-05-21T03:44:31;102099.01;;;13.29;79.47
77454;BME280;66538;53.150;18.160;2023-05-21T03:47:18;102101.45;;;13.32;79.52
77454;BME280;66538;53.150;18.160;2023-05-21T03:49:44;102099.15;;;13.34;79.71
77454;BME280;66538;53.150;18.160;2023-05-21T03:52:11;102102.22;;;13.41;79.37
77454;BME280;66538;53.150;18.160;2023-05-21T03:54:38;102098.02;;;13.46;79.50
77454;BME280;66538;53.150;18.160;2023-05-21T03:57:06;102099.08;;;13.52;79.36
77454;BME280;66538;53.150;18.160;2023-05-21T03:59:33;102101.23;;;13.59;79.28
77454;BME280;66538;53.150;18.160;2023-05-21T04:02:00;102100.40;;;13.67;79.12
77454;BME280;66538;53.150;18.160;2023-05-21T04:04:26;102100.98;;;13.74;79.05
77454;BME280;66538;53.150;18.160;2023-05-21T04:06:54;102099.08;;;13.81;79.26
77454;BME280;66538;53.150;18.160;2023-05-21T04:09:22;102096.54;;;13.86;79.13
77454;BME280;66538;53.150;18.160;2023-05-21T04:11:48;102099.47;;;13.94;79.06
77454;BME280;66538;53.150;18.160;2023-05-21T04:14:15;102102.55;;;14.03;79.04
77454;BME280;66538;53.150;18.160;2023-05-21T04:16:41;102106.19;;;14.11;78.95
77454;BME280;66538;53.150;18.160;2023-05-21T04:19:09;102099.75;;;14.18;78.71
77454;BME280;66538;53.150;18.160;2023-05-21T04:21:36;102104.19;;;14.29;78.68
77454;BME280;66538;53.150;18.160;2023-05-21T04:24:03;102105.03;;;14.36;78.66
77454;BME280;66538;53.150;18.160;2023-05-21T04:26:49;102108.90;;;14.47;78.28
77454;BME280;66538;53.150;18.160;2023-05-21T04:29:16;102106.50;;;14.55;77.60
77454;BME280;66538;53.150;18.160;2023-05-21T04:31:47;102109.02;;;14.69;77.00
77454;BME280;66538;53.150;18.160;2023-05-21T04:34:15;102103.55;;;14.84;76.39
77454;BME280;66538;53.150;18.160;2023-05-21T04:36:45;102107.64;;;14.99;76.15
77454;BME280;66538;53.150;18.160;2023-05-21T04:39:13;102107.70;;;15.11;75.58
77454;BME280;66538;53.150;18.160;2023-05-21T04:41:40;102111.18;;;15.24;74.92
77454;BME280;66538;53.150;18.160;2023-05-21T04:44:07;102107.00;;;15.37;74.18
77454;BME280;66538;53.150;18.160;2023-05-21T04:46:34;102107.23;;;15.49;74.05
77454;BME280;66538;53.150;18.160;2023-05-21T04:49:01;102109.35;;;15.61;73.57
77454;BME280;66538;53.150;18.160;2023-05-21T04:51:30;102111.02;;;15.71;72.92
77454;BME280;66538;53.150;18.160;2023-05-21T04:53:57;102108.59;;;15.82;72.69
77454;BME280;66538;53.150;18.160;2023-05-21T04:56:25;102099.30;;;15.91;72.38
77454;BME280;66538;53.150;18.160;2023-05-21T04:58:54;102100.27;;;16.02;72.31
77454;BME280;66538;53.150;18.160;2023-05-21T05:01:21;102097.82;;;16.11;71.96
77454;BME280;66538;53.150;18.160;2023-05-21T05:03:48;102100.45;;;16.20;71.31
77454;BME280;66538;53.150;18.160;2023-05-21T05:06:16;102100.58;;;16.28;70.97
77454;BME280;66538;53.150;18.160;2023-05-21T05:08:43;102102.01;;;16.36;70.43
77454;BME280;66538;53.150;18.160;2023-05-21T05:11:12;102100.55;;;16.47;70.20
77454;BME280;66538;53.150;18.160;2023-05-21T05:13:39;102102.31;;;16.57;69.95
77454;BME280;66538;53.150;18.160;2023-05-21T05:16:09;102102.48;;;16.67;69.63
77454;BME280;66538;53.150;18.160;2023-05-21T05:18:36;102099.88;;;16.77;69.39
77454;BME280;66538;53.150;18.160;2023-05-21T05:21:02;102098.98;;;16.87;69.16
77454;BME280;66538;53.150;18.160;2023-05-21T05:23:29;102098.81;;;16.96;68.70
77454;BME280;66538;53.150;18.160;2023-05-21T05:25:56;102097.58;;;17.06;68.60
77454;BME280;66538;53.150;18.160;2023-05-21T05:28:23;102096.90;;;17.16;68.06
77454;BME280;66538;53.150;18.160;2023-05-21T05:30:49;102096.52;;;17.26;67.51
77454;BME280;66538;53.150;18.160;2023-05-21T05:33:24;102097.64;;;17.36;67.38
77454;BME280;66538;53.150;18.160;2023-05-21T05:35:50;102099.45;;;17.46;66.82
77454;BME280;66538;53.150;18.160;2023-05-21T05:38:17;102097.98;;;17.56;66.53
77454;BME280;66538;53.150;18.160;2023-05-21T05:40:44;102099.35;;;17.67;66.16
77454;BME280;66538;53.150;18.160;2023-05-21T05:43:11;102093.82;;;17.76;66.07
77454;BME280;66538;53.150;18.160;2023-05-21T05:45:37;102099.07;;;17.88;65.70
77454;BME280;66538;53.150;18.160;2023-05-21T05:48:08;102094.66;;;17.99;65.59
77454;BME280;66538;53.150;18.160;2023-05-21T05:50:35;102092.60;;;18.12;65.10
77454;BME280;66538;53.150;18.160;2023-05-21T05:53:02;102091.64;;;18.24;64.16
77454;BME280;66538;53.150;18.160;2023-05-21T05:55:29;102089.00;;;18.34;64.31
77454;BME280;66538;53.150;18.160;2023-05-21T05:57:56;102087.70;;;18.46;63.85
77454;BME280;66538;53.150;18.160;2023-05-21T06:00:23;102084.63;;;18.59;63.41
77454;BME280;66538;53.150;18.160;2023-05-21T06:02:50;102083.10;;;18.69;63.25
77454;BME280;66538;53.150;18.160;2023-05-21T06:05:16;102087.89;;;18.80;62.57
77454;BME280;66538;53.150;18.160;2023-05-21T06:07:43;102092.76;;;18.89;61.67
77454;BME280;66538;53.150;18.160;2023-05-21T06:10:10;102087.34;;;18.96;62.11
77454;BME280;66538;53.150;18.160;2023-05-21T06:12:36;102090.52;;;19.06;61.47
77454;BME280;66538;53.150;18.160;2023-05-21T06:15:04;102090.91;;;19.17;61.13
77454;BME280;66538;53.150;18.160;2023-05-21T06:17:31;102084.21;;;19.26;60.45
77454;BME280;66538;53.150;18.160;2023-05-21T06:19:58;102084.05;;;19.34;60.01
77454;BME280;66538;53.150;18.160;2023-05-21T06:22:25;102080.14;;;19.44;60.03
77454;BME280;66538;53.150;18.160;2023-05-21T06:24:51;102077.66;;;19.53;59.77
77454;BME280;66538;53.150;18.160;2023-05-21T06:27:18;102080.70;;;19.65;58.95
77454;BME280;66538;53.150;18.160;2023-05-21T06:29:45;102080.39;;;19.75;59.27
77454;BME280;66538;53.150;18.160;2023-05-21T06:32:12;102077.52;;;19.86;58.89
77454;BME280;66538;53.150;18.160;2023-05-21T06:34:39;102083.77;;;19.93;58.12
77454;BME280;66538;53.150;18.160;2023-05-21T06:37:06;102080.38;;;20.02;58.22
77454;BME280;66538;53.150;18.160;2023-05-21T06:39:33;102078.69;;;20.09;57.78
77454;BME280;66538;53.150;18.160;2023-05-21T06:42:00;102081.38;;;20.18;57.49
77454;BME280;66538;53.150;18.160;2023-05-21T06:45:00;102077.56;;;20.25;56.95
77454;BME280;66538;53.150;18.160;2023-05-21T06:47:33;102076.27;;;20.31;56.99
77454;BME280;66538;53.150;18.160;2023-05-21T06:50:00;102077.68;;;20.38;56.56
77454;BME280;66538;53.150;18.160;2023-05-21T06:52:26;102077.43;;;20.43;56.78
77454;BME280;66538;53.150;18.160;2023-05-21T06:54:53;102072.67;;;20.53;56.97
77454;BME280;66538;53.150;18.160;2023-05-21T06:57:21;102074.52;;;20.68;56.71
77454;BME280;66538;53.150;18.160;2023-05-21T06:59:47;102071.17;;;20.79;55.96
77454;BME280;66538;53.150;18.160;2023-05-21T07:02:14;102075.29;;;20.89;55.58
77454;BME280;66538;53.150;18.160;2023-05-21T07:04:42;102075.20;;;20.99;55.00
77454;BME280;66538;53.150;18.160;2023-05-21T07:07:08;102078.96;;;21.12;54.72
77454;BME280;66538;53.150;18.160;2023-05-21T07:09:35;102075.86;;;21.23;54.83
77454;BME280;66538;53.150;18.160;2023-05-21T07:12:02;102071.11;;;21.36;54.53
77454;BME280;66538;53.150;18.160;2023-05-21T07:14:28;102075.30;;;21.47;53.93
77454;BME280;66538;53.150;18.160;2023-05-21T07:16:56;102072.08;;;21.58;53.85
77454;BME280;66538;53.150;18.160;2023-05-21T07:19:22;102072.34;;;21.70;53.44
77454;BME280;66538;53.150;18.160;2023-05-21T07:21:49;102067.77;;;21.78;52.54
77454;BME280;66538;53.150;18.160;2023-05-21T07:24:16;102068.04;;;21.87;52.32
77454;BME280;66538;53.150;18.160;2023-05-21T07:26:43;102064.75;;;21.95;51.75
77454;BME280;66538;53.150;18.160;2023-05-21T07:29:10;102066.42;;;21.99;51.68
77454;BME280;66538;53.150;18.160;2023-05-21T07:31:37;102063.60;;;22.04;51.24
77454;BME280;66538;53.150;18.160;2023-05-21T07:34:04;102058.15;;;22.10;51.13
77454;BME280;66538;53.150;18.160;2023-05-21T07:36:31;102054.25;;;22.19;51.17
77454;BME280;66538;53.150;18.160;2023-05-21T07:38:59;102047.48;;;22.33;50.90
77454;BME280;66538;53.150;18.160;2023-05-21T07:41:27;102046.38;;;22.50;50.51
77454;BME280;66538;53.150;18.160;2023-05-21T07:43:54;102049.46;;;22.62;49.06
77454;BME280;66538;53.150;18.160;2023-05-21T07:46:20;102050.20;;;22.68;49.21
77454;BME280;66538;53.150;18.160;2023-05-21T07:48:48;102054.61;;;22.80;49.09
77454;BME280;66538;53.150;18.160;2023-05-21T07:51:16;102050.92;;;22.88;48.47
77454;BME280;66538;53.150;18.160;2023-05-21T07:53:43;102052.37;;;22.97;48.43
77454;BME280;66538;53.150;18.160;2023-05-21T07:56:11;102048.60;;;23.08;48.34
77454;BME280;66538;53.150;18.160;2023-05-21T07:58:37;102047.45;;;23.16;47.89
77454;BME280;66538;53.150;18.160;2023-05-21T08:01:05;102046.07;;;23.28;47.62
77454;BME280;66538;53.150;18.160;2023-05-21T08:03:32;102047.05;;;23.33;46.53
77454;BME280;66538;53.150;18.160;2023-05-21T08:05:59;102044.23;;;23.47;46.31
77454;BME280;66538;53.150;18.160;2023-05-21T08:08:26;102045.29;;;23.59;46.38
77454;BME280;66538;53.150;18.160;2023-05-21T08:10:54;102045.70;;;23.69;45.89
77454;BME280;66538;53.150;18.160;2023-05-21T08:13:21;102044.64;;;23.76;45.29
77454;BME280;66538;53.150;18.160;2023-05-21T08:15:48;102042.61;;;23.79;44.66
77454;BME280;66538;53.150;18.160;2023-05-21T08:18:14;102041.48;;;23.83;44.42
77454;BME280;66538;53.150;18.160;2023-05-21T08:20:43;102039.20;;;23.91;44.47
77454;BME280;66538;53.150;18.160;2023-05-21T08:23:10;102039.45;;;24.01;43.94
77454;BME280;66538;53.150;18.160;2023-05-21T08:25:40;102042.03;;;24.12;43.68
77454;BME280;66538;53.150;18.160;2023-05-21T08:28:07;102040.13;;;24.24;43.54
77454;BME280;66538;53.150;18.160;2023-05-21T08:30:34;102038.64;;;24.38;43.14
77454;BME280;66538;53.150;18.160;2023-05-21T08:33:00;102034.27;;;24.50;42.76
77454;BME280;66538;53.150;18.160;2023-05-21T08:35:28;102029.58;;;24.58;41.93
77454;BME280;66538;53.150;18.160;2023-05-21T08:38:11;102030.19;;;24.66;41.62
77454;BME280;66538;53.150;18.160;2023-05-21T08:40:58;102029.64;;;24.67;40.72
77454;BME280;66538;53.150;18.160;2023-05-21T08:43:26;102030.80;;;24.70;40.86
77454;BME280;66538;53.150;18.160;2023-05-21T08:45:54;102032.11;;;24.79;39.98
77454;BME280;66538;53.150;18.160;2023-05-21T08:48:23;102030.06;;;24.79;39.00
77454;BME280;66538;53.150;18.160;2023-05-21T08:50:53;102030.22;;;24.77;38.35
77454;BME280;66538;53.150;18.160;2023-05-21T08:53:24;102028.11;;;24.76;38.42
77454;BME280;66538;53.150;18.160;2023-05-21T08:55:54;102028.84;;;24.82;38.89
77454;BME280;66538;53.150;18.160;2023-05-21T08:58:22;102029.70;;;24.98;38.90
77454;BME280;66538;53.150;18.160;2023-05-21T09:00:49;102025.89;;;25.14;37.55
77454;BME280;66538;53.150;18.160;2023-05-21T09:03:16;102026.62;;;25.25;37.09
77454;BME280;66538;53.150;18.160;2023-05-21T09:05:43;102025.12;;;25.33;36.25
77454;BME280;66538;53.150;18.160;2023-05-21T09:08:26;102027.20;;;25.35;35.70
77454;BME280;66538;53.150;18.160;2023-05-21T09:11:00;102027.95;;;25.42;34.58
77454;BME280;66538;53.150;18.160;2023-05-21T09:13:32;102026.59;;;25.44;34.65
77454;BME280;66538;53.150;18.160;2023-05-21T09:15:59;102026.48;;;25.47;33.90
77454;BME280;66538;53.150;18.160;2023-05-21T09:18:26;102025.74;;;25.54;34.03
77454;BME280;66538;53.150;18.160;2023-05-21T09:21:28;102024.86;;;25.62;34.23
77454;BME280;66538;53.150;18.160;2023-05-21T09:24:04;102024.15;;;25.68;34.21
77454;BME280;66538;53.150;18.160;2023-05-21T09:26:31;102021.29;;;25.72;34.33
77454;BME280;66538;53.150;18.160;2023-05-21T09:29:02;102018.69;;;25.89;34.49
77454;BME280;66538;53.150;18.160;2023-05-21T09:31:29;102016.80;;;26.04;34.22
77454;BME280;66538;53.150;18.160;2023-05-21T09:33:56;102015.05;;;26.15;33.90
77454;BME280;66538;53.150;18.160;2023-05-21T09:36:23;102014.59;;;26.23;33.86
77454;BME280;66538;53.150;18.160;2023-05-21T09:38:50;102014.08;;;26.35;33.34
77454;BME280;66538;53.150;18.160;2023-05-21T09:41:18;102019.86;;;26.39;33.13
77454;BME280;66538;53.150;18.160;2023-05-21T09:43:45;102019.51;;;26.47;33.22
77454;BME280;66538;53.150;18.160;2023-05-21T09:46:12;102014.02;;;26.65;33.22
77454;BME280;66538;53.150;18.160;2023-05-21T09:48:42;102015.96;;;26.81;32.72
77454;BME280;66538;53.150;18.160;2023-05-21T09:51:14;102017.23;;;26.88;32.52
77454;BME280;66538;53.150;18.160;2023-05-21T09:53:49;102013.35;;;27.00;32.53
77454;BME280;66538;53.150;18.160;2023-05-21T09:56:21;102009.31;;;27.08;31.99
77454;BME280;66538;53.150;18.160;2023-05-21T09:58:56;102008.15;;;27.12;31.26
77454;BME280;66538;53.150;18.160;2023-05-21T10:01:23;102007.70;;;27.01;30.66
77454;BME280;66538;53.150;18.160;2023-05-21T10:03:54;102008.05;;;26.80;30.57
77454;BME280;66538;53.150;18.160;2023-05-21T10:06:26;102004.38;;;26.66;31.14
77454;BME280;66538;53.150;18.160;2023-05-21T10:08:55;102011.46;;;26.66;31.29
77454;BME280;66538;53.150;18.160;2023-05-21T10:11:25;102008.91;;;26.59;31.04
77454;BME280;66538;53.150;18.160;2023-05-21T10:14:06;102005.71;;;26.57;31.86
77454;BME280;66538;53.150;18.160;2023-05-21T10:16:35;102003.23;;;26.61;31.81
77454;BME280;66538;53.150;18.160;2023-05-21T10:19:02;102000.91;;;26.67;31.88
77454;BME280;66538;53.150;18.160;2023-05-21T10:21:30;102003.52;;;26.73;32.28
77454;BME280;66538;53.150;18.160;2023-05-21T10:24:01;102002.36;;;26.84;32.27
77454;BME280;66538;53.150;18.160;2023-05-21T10:26:28;102001.60;;;26.94;31.60
77454;BME280;66538;53.150;18.160;2023-05-21T10:28:56;102001.77;;;27.02;31.29
77454;BME280;66538;53.150;18.160;2023-05-21T10:31:25;101998.97;;;27.04;31.34
77454;BME280;66538;53.150;18.160;2023-05-21T10:33:53;101995.48;;;27.07;31.35
77454;BME280;66538;53.150;18.160;2023-05-21T10:36:23;101993.38;;;27.11;31.30
77454;BME280;66538;53.150;18.160;2023-05-21T10:38:50;101988.69;;;27.23;31.45
77454;BME280;66538;53.150;18.160;2023-05-21T10:41:18;101989.62;;;27.34;30.85
77454;BME280;66538;53.150;18.160;2023-05-21T10:44:06;101981.95;;;27.38;30.74
77454;BME280;66538;53.150;18.160;2023-05-21T10:58:05;101975.77;;;27.55;29.42
77454;BME280;66538;53.150;18.160;2023-05-21T11:00:37;101971.55;;;27.45;29.41
77454;BME280;66538;53.150;18.160;2023-05-21T11:03:04;101974.19;;;27.43;29.91
77454;BME280;66538;53.150;18.160;2023-05-21T11:05:53;101970.16;;;27.46;29.81
77454;BME280;66538;53.150;18.160;2023-05-21T11:08:26;101968.95;;;27.48;29.93
77454;BME280;66538;53.150;18.160;2023-05-21T11:10:54;101972.31;;;27.46;29.74
77454;BME280;66538;53.150;18.160;2023-05-21T11:13:24;101972.56;;;27.44;30.04
77454;BME280;66538;53.150;18.160;2023-05-21T11:23:54;101964.89;;;27.43;29.40
77454;BME280;66538;53.150;18.160;2023-05-21T11:26:26;101963.61;;;27.46;29.97
77454;BME280;66538;53.150;18.160;2023-05-21T11:31:29;101964.94;;;27.61;29.90
77454;BME280;66538;53.150;18.160;2023-05-21T11:34:14;101961.92;;;27.65;29.01
77454;BME280;66538;53.150;18.160;2023-05-21T11:36:48;101965.36;;;27.65;28.92
77454;BME280;66538;53.150;18.160;2023-05-21T11:39:16;101966.86;;;27.64;28.62
77454;BME280;66538;53.150;18.160;2023-05-21T11:41:58;101967.02;;;27.67;28.78
77454;BME280;66538;53.150;18.160;2023-05-21T11:44:47;101958.77;;;27.68;28.75
77454;BME280;66538;53.150;18.160;2023-05-21T11:47:17;101957.48;;;27.73;29.03
77454;BME280;66538;53.150;18.160;2023-05-21T11:49:45;101956.39;;;27.87;28.97
77454;BME280;66538;53.150;18.160;2023-05-21T11:52:12;101961.23;;;28.05;29.01
77454;BME280;66538;53.150;18.160;2023-05-21T11:54:50;101956.61;;;28.26;28.81
77454;BME280;66538;53.150;18.160;2023-05-21T11:57:20;101956.56;;;28.49;28.47
77454;BME280;66538;53.150;18.160;2023-05-21T11:59:48;101951.64;;;28.66;28.05
77454;BME280;66538;53.150;18.160;2023-05-21T12:02:20;101954.49;;;28.74;27.86
77454;BME280;66538;53.150;18.160;2023-05-21T12:04:49;101947.33;;;28.78;27.54
77454;BME280;66538;53.150;18.160;2023-05-21T12:07:19;101947.15;;;28.84;27.80
77454;BME280;66538;53.150;18.160;2023-05-21T12:09:50;101943.42;;;28.85;27.58
77454;BME280;66538;53.150;18.160;2023-05-21T12:12:18;101945.11;;;28.95;27.72
77454;BME280;66538;53.150;18.160;2023-05-21T12:14:48;101939.39;;;28.99;27.44
77454;BME280;66538;53.150;18.160;2023-05-21T12:17:22;101937.51;;;29.01;27.55
77454;BME280;66538;53.150;18.160;2023-05-21T12:19:51;101939.23;;;29.08;27.43
77454;BME280;66538;53.150;18.160;2023-05-21T12:22:18;101942.70;;;29.14;26.85
77454;BME280;66538;53.150;18.160;2023-05-21T12:24:45;101941.27;;;29.10;26.70
77454;BME280;66538;53.150;18.160;2023-05-21T12:27:13;101940.75;;;29.15;26.61
77454;BME280;66538;53.150;18.160;2023-05-21T12:29:43;101940.09;;;29.22;26.59
77454;BME280;66538;53.150;18.160;2023-05-21T12:32:13;101936.56;;;29.31;26.50
77454;BME280;66538;53.150;18.160;2023-05-21T12:34:43;101938.05;;;29.37;26.54
77454;BME280;66538;53.150;18.160;2023-05-21T12:39:42;101933.13;;;29.56;26.45
77454;BME280;66538;53.150;18.160;2023-05-21T12:42:09;101932.39;;;29.73;25.80
77454;BME280;66538;53.150;18.160;2023-05-21T12:44:45;101928.92;;;29.96;25.62
77454;BME280;66538;53.150;18.160;2023-05-21T12:47:12;101922.46;;;30.21;24.74
77454;BME280;66538;53.150;18.160;2023-05-21T12:49:40;101922.44;;;30.45;24.90
77454;BME280;66538;53.150;18.160;2023-05-21T12:52:11;101918.85;;;30.78;24.62
77454;BME280;66538;53.150;18.160;2023-05-21T12:54:44;101920.31;;;31.10;24.95
77454;BME280;66538;53.150;18.160;2023-05-21T12:57:15;101915.97;;;31.54;24.06
77454;BME280;66538;53.150;18.160;2023-05-21T12:59:48;101910.27;;;32.29;22.93
77454;BME280;66538;53.150;18.160;2023-05-21T13:02:23;101906.06;;;33.78;21.97
77454;BME280;66538;53.150;18.160;2023-05-21T13:04:58;101900.27;;;35.26;20.74
77454;BME280;66538;53.150;18.160;2023-05-21T13:07:27;101897.54;;;36.50;19.83
77454;BME280;66538;53.150;18.160;2023-05-21T13:09:54;101891.14;;;37.60;18.50
77454;BME280;66538;53.150;18.160;2023-05-21T13:12:22;101889.70;;;38.43;17.51
77454;BME280;66538;53.150;18.160;2023-05-21T13:14:52;101882.84;;;39.01;16.95